Time;durP1;ratioP1;P1;durP2;ratioP2;P2;SDS_P1;SDS_P2;PMS_P1;PMS_P2;Temp;Humidity;BMP_temperature;BMP_pressure;BME280_temperature;BME280_humidity;BME280_pressure;Samples;Min_cycle;Max_cycle;Signal;HPM_P1;HPM_P2
2023/11/07 00:03:39;;;;;;;;;;;;;;;17.21;51.76;98815.34;10325110;28;1953;-72
2023/11/07 00:08:35;;;;;;;;;;;;;;;17.22;51.66;98824.06;10326324;28;853;-71
2023/11/07 00:13:31;;;;;;;;;;;;;;;17.20;51.52;98841.75;10325231;28;957;-72
2023/11/07 00:18:27;;;;;;;;;;;;;;;17.18;51.76;98840.97;10324929;28;1200;-72
2023/11/07 00:23:23;;;;;;;;;;;;;;;17.16;51.63;98841.06;10324694;28;1898;-71
2023/11/07 00:28:19;;;;;;;;;;;;;;;17.15;51.78;98838.50;10324731;28;974;-72
2023/11/07 00:33:15;;;;;;;;;;;;;;;17.12;51.81;98839.53;10326161;28;1310;-71
2023/11/07 00:38:11;;;;;;;;;;;;;;;17.10;51.95;98841.38;10325155;28;993;-71
2023/11/07 00:43:07;;;;;;;;;;;;;;;17.09;51.91;98837.91;10324561;28;1902;-72
2023/11/07 00:48:03;;;;;;;;;;;;;;;17.07;52.03;98844.19;10323747;28;909;-72
2023/11/07 00:52:59;;;;;;;;;;;;;;;17.05;51.94;98836.38;10324122;28;865;-72
2023/11/07 00:57:55;;;;;;;;;;;;;;;17.04;52.13;98854.88;10324123;28;866;-72
2023/11/07 01:02:51;;;;;;;;;;;;;;;17.00;51.85;98858.59;10323860;28;1894;-72
2023/11/07 01:07:46;;;;;;;;;;;;;;;17.01;51.89;98876.13;10323898;28;928;-72
2023/11/07 01:12:42;;;;;;;;;;;;;;;16.97;51.85;98872.78;10328894;28;778;-72
2023/11/07 01:17:38;;;;;;;;;;;;;;;16.97;52.17;98866.69;10331117;28;804;-71
2023/11/07 01:22:34;;;;;;;;;;;;;;;16.97;52.13;98871.94;10331009;28;1890;-71
2023/11/07 01:27:30;;;;;;;;;;;;;;;16.96;52.23;98878.16;10330672;28;762;-71
2023/11/07 01:32:28;;;;;;;;;;;;;;;16.94;52.20;98886.13;10330591;28;1709;-71
2023/11/07 01:37:24;;;;;;;;;;;;;;;16.92;52.13;98887.97;10330212;28;1035;-71
2023/11/07 01:42:20;;;;;;;;;;;;;;;16.92;52.05;98884.50;10329943;28;1969;-72
2023/11/07 01:47:16;;;;;;;;;;;;;;;16.91;52.11;98886.28;10329811;28;912;-72
2023/11/07 01:52:12;;;;;;;;;;;;;;;16.87;52.28;98882.09;10330202;28;830;-72
2023/11/07 01:57:08;;;;;;;;;;;;;;;16.86;52.34;98881.25;10330086;28;838;-72
2023/11/07 02:02:06;;;;;;;;;;;;;;;16.86;52.15;98883.03;10329136;28;1949;-72
2023/11/07 02:07:02;;;;;;;;;;;;;;;16.85;52.20;98882.22;10329039;28;940;-71
2023/11/07 02:11:58;;;;;;;;;;;;;;;16.82;52.35;98889.41;10328843;28;842;-72
2023/11/07 02:16:54;;;;;;;;;;;;;;;16.83;52.37;98885.84;10328633;28;968;-72
2023/11/07 02:21:50;;;;;;;;;;;;;;;16.80;52.37;98893.91;10328540;28;1953;-72
2023/11/07 02:26:46;;;;;;;;;;;;;;;16.82;52.40;98889.41;10329056;28;795;-72
2023/11/07 02:31:42;;;;;;;;;;;;;;;16.81;52.44;98882.44;10328921;28;1151;-72
2023/11/07 02:36:38;;;;;;;;;;;;;;;16.78;52.31;98883.44;10327850;28;929;-71
2023/11/07 02:41:34;;;;;;;;;;;;;;;16.78;52.27;98878.19;10326963;28;1968;-72
2023/11/07 02:46:30;;;;;;;;;;;;;;;16.79;52.41;98885.16;10328007;28;850;-72
2023/11/07 02:51:26;;;;;;;;;;;;;;;16.77;52.46;98891.41;10328079;28;1639;-72
2023/11/07 02:56:22;;;;;;;;;;;;;;;16.75;52.41;98883.59;10327659;28;766;-72
2023/11/07 03:01:21;;;;;;;;;;;;;;;16.75;52.35;98888.84;10326091;28;1898;-72
2023/11/07 03:06:17;;;;;;;;;;;;;;;16.75;52.46;98888.00;10327190;28;924;-72
2023/11/07 03:11:13;;;;;;;;;;;;;;;16.72;52.56;98877.66;10326063;28;774;-72
2023/11/07 03:16:10;;;;;;;;;;;;;;;16.70;52.61;98882.97;10326296;28;787;-72
2023/11/07 03:21:05;;;;;;;;;;;;;;;16.68;52.49;98884.84;10326137;28;1890;-71
2023/11/07 03:26:04;;;;;;;;;;;;;;;16.68;52.75;98887.47;10326130;28;841;-72
2023/11/07 03:31:00;;;;;;;;;;;;;;;16.68;52.47;98887.47;10326194;28;1105;-71
2023/11/07 03:35:57;;;;;;;;;;;;;;;16.67;52.42;98891.03;10325055;28;866;-71
2023/11/07 03:40:52;;;;;;;;;;;;;;;16.65;52.69;98895.53;10326213;28;1964;-71
2023/11/07 03:45:48;;;;;;;;;;;;;;;16.65;52.66;98892.91;10325534;28;867;-72
2023/11/07 03:50:44;;;;;;;;;;;;;;;16.64;52.37;98907.00;10326251;28;838;-72
2023/11/07 03:55:40;;;;;;;;;;;;;;;16.62;52.64;98891.28;10325320;28;953;-72
2023/11/07 04:00:36;;;;;;;;;;;;;;;16.61;52.50;98899.22;10325308;28;763;-72
2023/11/07 04:05:32;;;;;;;;;;;;;;;16.61;52.48;98905.38;10325118;28;1949;-71
2023/11/07 04:10:28;;;;;;;;;;;;;;;16.60;52.56;98905.44;10325646;28;897;-72
2023/11/07 04:15:24;;;;;;;;;;;;;;;16.58;52.66;98907.28;10325259;28;837;-71
2023/11/07 04:20:20;;;;;;;;;;;;;;;16.57;52.55;98908.22;10325901;28;868;-71
2023/11/07 04:25:19;;;;;;;;;;;;;;;16.58;52.58;98909.91;10324700;28;1972;-72
2023/11/07 04:30:16;;;;;;;;;;;;;;;16.55;52.75;98899.56;10324251;28;1231;-71
2023/11/07 04:35:12;;;;;;;;;;;;;;;16.54;52.73;98903.13;10324532;28;890;-72
2023/11/07 04:40:08;;;;;;;;;;;;;;;16.55;52.81;98908.28;10325073;28;795;-72
2023/11/07 04:45:07;;;;;;;;;;;;;;;16.52;52.83;98908.47;10327141;28;1898;-72
2023/11/07 04:50:02;;;;;;;;;;;;;;;16.52;52.78;98904.97;10331902;28;965;-72
2023/11/07 04:54:58;;;;;;;;;;;;;;;16.58;52.41;98912.53;10332311;28;869;-72
2023/11/07 04:59:54;;;;;;;;;;;;;;;16.68;52.18;98911.16;10332148;28;790;-72
2023/11/07 05:04:52;;;;;;;;;;;;;;;16.74;51.92;98908.22;10331845;28;1959;-72
2023/11/07 05:09:52;;;;;;;;;;;;;;;16.79;51.87;98905.34;10331114;28;913;-72
2023/11/07 05:14:48;;;;;;;;;;;;;;;16.83;51.68;98907.75;10331573;28;1587;-72
2023/11/07 05:19:44;;;;;;;;;;;;;;;16.91;51.75;98914.41;10330931;28;902;-72
2023/11/07 05:24:40;;;;;;;;;;;;;;;17.01;51.76;98915.63;10331543;28;1959;-73
2023/11/07 05:29:36;;;;;;;;;;;;;;;17.09;51.49;98916.91;10330566;28;1092;-72
2023/11/07 05:34:31;;;;;;;;;;;;;;;17.15;51.41;98926.25;10327949;28;1113;-72
2023/11/07 05:39:27;;;;;;;;;;;;;;;17.20;51.44;98916.31;10329459;28;834;-73
2023/11/07 05:44:23;;;;;;;;;;;;;;;17.21;51.48;98920.66;10330546;28;1914;-72
2023/11/07 05:49:20;;;;;;;;;;;;;;;17.24;51.32;98923.13;10330411;28;861;-71
2023/11/07 05:54:15;;;;;;;;;;;;;;;17.30;51.22;98928.06;10329671;28;787;-73
2023/11/07 05:59:11;;;;;;;;;;;;;;;17.31;51.42;98928.91;10328570;28;870;-72
2023/11/07 06:04:08;;;;;;;;;;;;;;;17.33;51.40;98931.47;10329169;28;1890;-72
2023/11/07 06:09:04;;;;;;;;;;;;;;;17.35;51.36;98933.09;10329067;28;779;-73
2023/11/07 06:14:00;;;;;;;;;;;;;;;17.35;51.22;98935.72;10328880;28;960;-72
2023/11/07 06:18:56;;;;;;;;;;;;;;;17.37;51.38;98948.78;10328962;28;806;-73
2023/11/07 06:23:52;;;;;;;;;;;;;;;17.42;51.38;98938.84;10328948;28;1902;-73
2023/11/07 06:28:48;;;;;;;;;;;;;;;17.41;51.32;98947.69;10328921;28;1203;-73
2023/11/07 06:33:44;;;;;;;;;;;;;;;17.41;51.17;98947.69;10328139;28;846;-72
2023/11/07 06:38:40;;;;;;;;;;;;;;;17.42;51.31;98960.81;10327838;28;826;-72
2023/11/07 06:43:36;;;;;;;;;;;;;;;17.46;51.31;98961.47;10327506;28;1941;-72
2023/11/07 06:48:33;;;;;;;;;;;;;;;17.43;51.20;98965.13;10326811;28;1008;-72
2023/11/07 06:53:30;;;;;;;;;;;;;;;17.46;51.30;98964.09;10327796;28;863;-72
2023/11/07 06:58:25;;;;;;;;;;;;;;;17.50;51.40;98961.22;10327002;28;790;-72
2023/11/07 07:03:25;;;;;;;;;;;;;;;17.48;51.41;98967.50;10327481;28;1959;-72
2023/11/07 07:08:23;;;;;;;;;;;;;;;17.45;51.53;98962.41;10326655;28;845;-71
2023/11/07 07:13:19;;;;;;;;;;;;;;;17.43;51.46;98964.28;10326463;28;846;-71
2023/11/07 07:18:18;;;;;;;;;;;;;;;17.39;51.43;98960.09;10326935;28;873;-72
2023/11/07 07:23:14;;;;;;;;;;;;;;;17.35;51.52;98964.69;10326140;28;1960;-72
2023/11/07 07:28:10;;;;;;;;;;;;;;;17.30;51.41;98969.34;10325495;28;905;-71
2023/11/07 07:33:06;;;;;;;;;;;;;;;17.29;51.32;98975.53;10327246;28;1096;-71
2023/11/07 07:38:03;;;;;;;;;;;;;;;17.27;51.56;98972.16;10326382;28;893;-71
2023/11/07 07:42:59;;;;;;;;;;;;;;;17.26;51.84;98978.34;10326229;28;1918;-71
2023/11/07 07:47:57;;;;;;;;;;;;;;;17.30;51.64;98975.47;10325531;28;877;-72
2023/11/07 07:52:56;;;;;;;;;;;;;;;17.35;51.38;98979.66;10325440;28;1008;-71
2023/11/07 07:57:53;;;;;;;;;;;;;;;17.36;51.37;98986.59;10325943;28;869;-71
2023/11/07 08:02:50;;;;;;;;;;;;;;;17.36;51.23;98987.44;10325212;28;1965;-71
2023/11/07 08:07:46;;;;;;;;;;;;;;;17.40;51.38;98990.78;10325427;28;861;-71
2023/11/07 08:12:42;;;;;;;;;;;;;;;17.39;51.38;98984.66;10324463;28;973;-72
2023/11/07 08:17:38;;;;;;;;;;;;;;;17.43;51.30;98991.47;10324937;28;885;-71
2023/11/07 08:22:36;;;;;;;;;;;;;;;17.47;51.13;98994.78;10332786;28;1906;-71
2023/11/07 08:27:33;;;;;;;;;;;;;;;17.47;51.04;99006.16;10333638;28;830;-71
2023/11/07 08:32:30;;;;;;;;;;;;;;;17.49;51.00;99001.66;10333285;28;1337;-72
2023/11/07 08:37:28;;;;;;;;;;;;;;;17.52;50.96;99000.66;10332508;28;882;-71
2023/11/07 08:42:25;;;;;;;;;;;;;;;17.57;50.94;98997.78;10332384;28;1925;-71
2023/11/07 08:47:20;;;;;;;;;;;;;;;17.54;50.77;98998.78;10332664;28;888;-71
2023/11/07 08:52:16;;;;;;;;;;;;;;;17.58;50.85;99010.88;10332651;28;826;-72
2023/11/07 08:57:12;;;;;;;;;;;;;;;17.57;51.02;99019.69;10332073;28;889;-72
2023/11/07 09:02:08;;;;;;;;;;;;;;;17.58;50.81;99007.38;10331641;28;1918;-72
2023/11/07 09:07:06;;;;;;;;;;;;;;;17.59;50.86;99012.56;10332096;28;933;-72
2023/11/07 09:12:02;;;;;;;;;;;;;;;17.61;50.87;99017.78;10330672;28;970;-71
2023/11/07 09:16:58;;;;;;;;;;;;;;;17.60;50.82;99019.53;10331139;28;809;-72
2023/11/07 09:21:54;;;;;;;;;;;;;;;17.60;50.90;99019.53;10331543;28;1965;-72
2023/11/07 09:26:50;;;;;;;;;;;;;;;17.65;50.56;99021.91;10330795;28;759;-72
2023/11/07 09:31:46;;;;;;;;;;;;;;;17.66;50.85;99027.13;10329094;28;1220;-71
2023/11/07 09:36:42;;;;;;;;;;;;;;;17.70;50.77;99038.34;10331133;28;925;-71
2023/11/07 09:41:41;;;;;;;;;;;;;;;17.69;50.72;99034.84;10331031;28;1981;-72
2023/11/07 09:46:37;;;;;;;;;;;;;;;17.66;50.86;99042.94;10330594;28;849;-71
2023/11/07 09:51:33;;;;;;;;;;;;;;;17.68;50.60;99048.09;10329740;28;913;-72
2023/11/07 09:56:29;;;;;;;;;;;;;;;17.69;50.66;99049.81;10330453;28;782;-71
2023/11/07 10:01:25;;;;;;;;;;;;;;;17.67;50.52;99033.25;10329379;28;1901;-72
2023/11/07 10:06:20;;;;;;;;;;;;;;;17.69;50.49;99041.91;10329228;28;771;-72
2023/11/07 10:11:17;;;;;;;;;;;;;;;17.69;50.28;99036.66;10329177;28;822;-72
2023/11/07 10:16:13;;;;;;;;;;;;;;;17.69;50.48;99039.28;10328759;28;965;-71
2023/11/07 10:21:11;;;;;;;;;;;;;;;17.69;50.32;99047.19;10328542;28;1905;-72
2023/11/07 10:26:07;;;;;;;;;;;;;;;17.71;50.21;99051.44;10328463;28;954;-71
2023/11/07 10:31:02;;;;;;;;;;;;;;;17.77;50.37;99054.69;10327989;28;1455;-72
2023/11/07 10:36:00;;;;;;;;;;;;;;;17.77;50.34;99063.44;10328631;28;885;-71
2023/11/07 10:40:56;;;;;;;;;;;;;;;17.79;50.23;99058.06;10327685;28;885;-72
2023/11/07 10:45:51;;;;;;;;;;;;;;;17.75;50.20;99066.16;10327292;28;1964;-72
2023/11/07 10:50:47;;;;;;;;;;;;;;;17.74;50.40;99056.53;10327427;28;896;-72
2023/11/07 10:55:43;;;;;;;;;;;;;;;17.73;50.27;99060.09;10327259;28;872;-72
2023/11/07 11:00:39;;;;;;;;;;;;;;;17.76;50.44;99053.81;10327182;28;857;-72
2023/11/07 11:05:35;;;;;;;;;;;;;;;17.76;50.24;99064.34;10327391;28;1893;-72
2023/11/07 11:10:31;;;;;;;;;;;;;;;17.72;50.35;99058.41;10326653;28;885;-72
2023/11/07 11:15:28;;;;;;;;;;;;;;;17.72;50.29;99055.78;10326496;28;798;-71
2023/11/07 11:20:23;;;;;;;;;;;;;;;17.76;50.10;99056.44;10326848;28;798;-72
2023/11/07 11:25:20;;;;;;;;;;;;;;;17.76;49.82;99056.44;10326065;28;1898;-72
2023/11/07 11:30:16;;;;;;;;;;;;;;;17.69;49.97;99057.72;10326340;28;1247;-70
2023/11/07 11:35:19;;;;;;;;;;;;;;;17.72;50.21;99068.09;10325902;28;953;-72
2023/11/07 11:40:15;;;;;;;;;;;;;;;17.80;50.00;99054.53;10325756;28;937;-72
2023/11/07 11:45:10;;;;;;;;;;;;;;;17.75;50.11;99055.59;10325660;28;1980;-72
2023/11/07 11:50:07;;;;;;;;;;;;;;;17.82;50.00;99047.41;10325579;28;779;-72
2023/11/07 11:55:08;;;;;;;;;;;;;;;17.87;49.11;99040.94;10324971;28;941;-71
2023/11/07 12:00:06;;;;;;;;;;;;;;;17.88;49.66;99041.78;10325466;28;853;-71
2023/11/07 12:05:02;;;;;;;;;;;;;;;17.82;49.31;99044.78;10325156;28;1890;-72
2023/11/07 12:09:59;;;;;;;;;;;;;;;17.81;49.18;99041.25;10325753;28;848;-71
2023/11/07 12:14:55;;;;;;;;;;;;;;;17.88;49.46;99047.06;10325701;28;966;-71
2023/11/07 12:19:50;;;;;;;;;;;;;;;17.90;49.42;99042.56;10324964;28;999;-72
2023/11/07 12:24:46;;;;;;;;;;;;;;;17.85;48.99;99041.97;10324275;28;2008;-72
2023/11/07 12:29:42;;;;;;;;;;;;;;;17.83;49.64;99042.03;10323993;28;1411;-71
2023/11/07 12:34:45;;;;;;;;;;;;;;;17.78;49.66;99038.78;10324729;28;811;-70
2023/11/07 12:39:41;;;;;;;;;;;;;;;17.69;49.24;99037.50;10324584;28;901;-72
2023/11/07 12:44:41;;;;;;;;;;;;;;;17.70;49.53;99036.53;10324678;28;1918;-72
2023/11/07 12:49:38;;;;;;;;;;;;;;;17.72;49.50;99033.84;10324950;28;801;-72
2023/11/07 12:54:34;;;;;;;;;;;;;;;17.71;49.15;99035.63;10324281;28;877;-71
2023/11/07 12:59:30;;;;;;;;;;;;;;;17.74;49.44;99035.47;10324353;28;861;-72
2023/11/07 13:04:27;;;;;;;;;;;;;;;17.73;49.13;99030.25;10324999;28;1893;-72
2023/11/07 13:09:23;;;;;;;;;;;;;;;17.72;49.50;99032.06;10331411;28;795;-73
2023/11/07 13:14:19;;;;;;;;;;;;;;;17.72;49.42;99032.06;10331885;28;783;-72
2023/11/07 13:19:15;;;;;;;;;;;;;;;17.73;49.80;99033.75;10331175;28;791;-71
2023/11/07 13:24:11;;;;;;;;;;;;;;;17.72;49.84;99044.38;10330812;28;1956;-72
2023/11/07 13:29:07;;;;;;;;;;;;;;;17.66;49.84;99035.03;10330674;28;1134;-71
2023/11/07 13:34:03;;;;;;;;;;;;;;;17.70;49.80;99044.44;10331260;28;806;-71
2023/11/07 13:38:59;;;;;;;;;;;;;;;17.68;49.76;99035.81;10330994;28;882;-72
2023/11/07 13:43:55;;;;;;;;;;;;;;;17.67;49.43;99039.34;10330069;28;1914;-72
2023/11/07 13:48:52;;;;;;;;;;;;;;;17.70;49.83;99046.25;10329992;28;770;-72
2023/11/07 13:53:50;;;;;;;;;;;;;;;17.75;49.56;99046.84;10329778;28;861;-72
2023/11/07 13:58:46;;;;;;;;;;;;;;;17.75;49.57;99045.06;10329674;28;897;-72
2023/11/07 14:03:42;;;;;;;;;;;;;;;17.79;49.58;99045.78;10328351;28;1893;-71
2023/11/07 14:08:38;;;;;;;;;;;;;;;17.82;49.64;99061.44;10328983;28;803;-72
2023/11/07 14:13:34;;;;;;;;;;;;;;;17.79;49.52;99058.97;10329308;28;811;-72
2023/11/07 14:18:31;;;;;;;;;;;;;;;17.79;49.68;99058.06;10328054;28;996;-72
2023/11/07 14:23:28;;;;;;;;;;;;;;;17.77;50.00;99062.59;10328260;28;1957;-72
2023/11/07 14:28:24;;;;;;;;;;;;;;;17.77;49.82;99065.22;10328144;28;960;-72
2023/11/07 14:33:20;;;;;;;;;;;;;;;17.76;49.75;99069.63;10328530;28;1142;-71
2023/11/07 14:38:16;;;;;;;;;;;;;;;17.75;49.97;99075.84;10327779;28;869;-71
2023/11/07 14:43:11;;;;;;;;;;;;;;;17.75;50.04;99076.69;10327483;28;1977;-71
2023/11/07 14:48:08;;;;;;;;;;;;;;;17.74;50.27;99082.06;10327336;28;869;-71
2023/11/07 14:53:04;;;;;;;;;;;;;;;17.72;50.33;99097.09;10327703;28;965;-72
2023/11/07 14:58:01;;;;;;;;;;;;;;;17.77;50.17;99099.50;10326906;28;834;-71
2023/11/07 15:02:57;;;;;;;;;;;;;;;17.79;50.10;99102.88;10326626;28;1901;-71
2023/11/07 15:07:53;;;;;;;;;;;;;;;17.77;50.15;99102.13;10326536;28;881;-71
2023/11/07 15:12:48;;;;;;;;;;;;;;;17.79;50.25;99095.88;10326271;28;960;-71
2023/11/07 15:17:44;;;;;;;;;;;;;;;17.77;50.11;99099.50;10326208;28;884;-71
2023/11/07 15:22:40;;;;;;;;;;;;;;;17.73;50.06;99101.41;10325957;28;1894;-72
2023/11/07 15:27:37;;;;;;;;;;;;;;;17.70;50.30;99091.06;10326116;28;897;-73
2023/11/07 15:32:33;;;;;;;;;;;;;;;17.73;50.15;99091.72;10325221;28;1389;-71
2023/11/07 15:37:29;;;;;;;;;;;;;;;17.74;49.80;99098.72;10325602;28;913;-72
2023/11/07 15:42:24;;;;;;;;;;;;;;;17.73;50.03;99097.00;10326359;28;1915;-71
2023/11/07 15:47:20;;;;;;;;;;;;;;;17.74;49.96;99097.88;10325975;28;888;-72
2023/11/07 15:52:18;;;;;;;;;;;;;;;17.76;50.10;99098.63;10324640;28;932;-71
2023/11/07 15:57:14;;;;;;;;;;;;;;;17.72;49.77;99095.31;10325250;28;814;-71
2023/11/07 16:02:10;;;;;;;;;;;;;;;17.74;50.19;99105.78;10325613;28;1898;-71
2023/11/07 16:07:06;;;;;;;;;;;;;;;17.78;49.88;99104.66;10324985;28;955;-68
2023/11/07 16:12:06;;;;;;;;;;;;;;;17.75;49.91;99103.03;10325158;28;861;-71
2023/11/07 16:17:02;;;;;;;;;;;;;;;17.73;50.00;99104.91;10325039;28;954;-71
2023/11/07 16:21:58;;;;;;;;;;;;;;;17.78;49.70;99117.00;10325563;28;1951;-71
2023/11/07 16:26:54;;;;;;;;;;;;;;;17.75;50.00;99110.94;10324844;28;905;-72
2023/11/07 16:31:50;;;;;;;;;;;;;;;17.73;49.69;99109.34;10325210;28;1227;-71
2023/11/07 16:36:45;;;;;;;;;;;;;;;17.74;49.84;99119.81;10324747;28;811;-71
2023/11/07 16:41:42;;;;;;;;;;;;;;;17.74;50.01;99126.88;10328584;28;1910;-71
2023/11/07 16:46:38;;;;;;;;;;;;;;;17.73;49.50;99128.63;10333149;28;1534;-72
2023/11/07 16:51:34;;;;;;;;;;;;;;;17.72;49.94;99134.00;10331592;28;1051;-78
2023/11/07 16:56:30;;;;;;;;;;;;;;;17.61;50.37;99133.72;10332167;28;898;-78
2023/11/07 17:01:27;;;;;;;;;;;;;;;17.58;50.33;99149.66;10331153;28;1894;-78
2023/11/07 17:06:23;;;;;;;;;;;;;;;17.53;50.49;99152.56;10331566;28;861;-78
2023/11/07 17:11:19;;;;;;;;;;;;;;;17.56;50.37;99152.41;10332270;28;811;-78
2023/11/07 17:16:15;;;;;;;;;;;;;;;17.55;50.45;99150.66;10331250;28;996;-78
2023/11/07 17:21:12;;;;;;;;;;;;;;;17.53;50.27;99163.09;10331010;28;869;-78
2023/11/07 17:26:08;;;;;;;;;;;;;;;17.56;50.32;99152.41;10331028;28;1972;-78
2023/11/07 17:31:04;;;;;;;;;;;;;;;17.57;50.22;99155.88;10330841;28;1324;-78
2023/11/07 17:36:01;;;;;;;;;;;;;;;17.56;50.34;99164.72;10331105;28;897;-78
2023/11/07 17:40:57;;;;;;;;;;;;;;;17.56;50.22;99164.72;10330277;28;909;-79
2023/11/07 17:45:53;;;;;;;;;;;;;;;17.57;50.06;99158.50;10330062;28;1910;-78
2023/11/07 17:50:49;;;;;;;;;;;;;;;17.56;50.28;99162.94;10329989;28;860;-79
2023/11/07 17:55:44;;;;;;;;;;;;;;;17.56;50.37;99167.38;10329355;28;909;-78
2023/11/07 18:00:40;;;;;;;;;;;;;;;17.58;50.15;99162.84;10329213;28;1012;-78
2023/11/07 18:05:36;;;;;;;;;;;;;;;17.58;50.11;99170.75;10329381;28;1901;-78
2023/11/07 18:10:32;;;;;;;;;;;;;;;17.56;50.13;99168.22;10329895;28;853;-78
2023/11/07 18:15:28;;;;;;;;;;;;;;;17.58;50.16;99166.34;10328470;28;873;-78
2023/11/07 18:20:24;;;;;;;;;;;;;;;17.59;50.36;99162.78;10329415;28;873;-78
2023/11/07 18:25:20;;;;;;;;;;;;;;;17.58;50.33;99173.38;10328586;28;1898;-78
2023/11/07 18:30:15;;;;;;;;;;;;;;;17.57;50.21;99166.41;10328557;28;1135;-79
2023/11/07 18:35:11;;;;;;;;;;;;;;;17.59;50.17;99159.28;10327621;28;1629;-78
2023/11/07 18:40:07;;;;;;;;;;;;;;;17.57;50.15;99172.53;10327960;28;869;-78
2023/11/07 18:45:06;;;;;;;;;;;;;;;17.58;50.16;99166.34;10328283;28;1977;-78
2023/11/07 18:50:02;;;;;;;;;;;;;;;17.57;50.24;99163.78;10327598;28;826;-78
2023/11/07 18:54:58;;;;;;;;;;;;;;;17.58;50.02;99166.34;10328044;28;760;-78
2023/11/07 18:59:55;;;;;;;;;;;;;;;17.58;50.08;99171.63;10327147;28;905;-78
2023/11/07 19:04:51;;;;;;;;;;;;;;;17.58;50.12;99173.38;10328164;28;1949;-79
2023/11/07 19:09:49;;;;;;;;;;;;;;;17.59;50.17;99168.03;10326782;28;882;-78
2023/11/07 19:14:44;;;;;;;;;;;;;;;17.60;50.16;99164.47;10326677;28;1272;-79
2023/11/07 19:19:41;;;;;;;;;;;;;;;17.57;50.16;99169.06;10326485;28;874;-79
2023/11/07 19:24:37;;;;;;;;;;;;;;;17.60;50.17;99168.88;10326295;28;1902;-78
2023/11/07 19:29:33;;;;;;;;;;;;;;;17.60;50.20;99166.25;10326136;28;1088;-79
2023/11/07 19:34:28;;;;;;;;;;;;;;;17.59;49.95;99161.94;10326003;28;881;-78
2023/11/07 19:39:24;;;;;;;;;;;;;;;17.58;49.87;99166.34;10325321;28;1020;-78
2023/11/07 19:44:20;;;;;;;;;;;;;;;17.60;50.02;99169.75;10325721;28;1910;-78
2023/11/07 19:49:16;;;;;;;;;;;;;;;17.62;50.04;99174.94;10325579;28;861;-79
2023/11/07 19:54:12;;;;;;;;;;;;;;;17.59;50.10;99164.56;10325005;28;796;-78
2023/11/07 19:59:08;;;;;;;;;;;;;;;17.60;49.94;99177.66;10325484;28;894;-78
2023/11/07 20:04:04;;;;;;;;;;;;;;;17.61;50.08;99186.44;10325338;28;1893;-78
2023/11/07 20:09:00;;;;;;;;;;;;;;;17.59;50.11;99183.00;10325236;28;870;-78
2023/11/07 20:13:56;;;;;;;;;;;;;;;17.59;49.87;99188.28;10325797;28;1699;-78
2023/11/07 20:18:52;;;;;;;;;;;;;;;17.62;49.77;99198.66;10333139;28;859;-78
2023/11/07 20:23:48;;;;;;;;;;;;;;;17.61;50.00;99189.91;10332825;28;1893;-78
2023/11/07 20:28:46;;;;;;;;;;;;;;;17.59;49.93;99193.56;10333000;28;1091;-78
2023/11/07 20:33:42;;;;;;;;;;;;;;;17.62;50.07;99196.03;10332617;28;1124;-78
2023/11/07 20:38:38;;;;;;;;;;;;;;;17.61;50.13;99202.25;10332813;28;786;-78
2023/11/07 20:43:34;;;;;;;;;;;;;;;17.59;49.85;99183.84;10332484;28;1977;-78
2023/11/07 20:48:31;;;;;;;;;;;;;;;17.54;50.00;99185.88;10332986;28;951;-79
2023/11/07 20:53:27;;;;;;;;;;;;;;;17.51;49.92;99186.88;10331819;28;1187;-79
2023/11/07 20:58:23;;;;;;;;;;;;;;;17.51;50.13;99192.16;10332582;28;814;-79
2023/11/07 21:03:19;;;;;;;;;;;;;;;17.52;50.21;99190.38;10331957;28;1905;-78
2023/11/07 21:08:15;;;;;;;;;;;;;;;17.50;50.10;99200.13;10331939;28;944;-79
2023/11/07 21:13:11;;;;;;;;;;;;;;;17.48;50.26;99202.00;10331553;28;928;-78
2023/11/07 21:18:07;;;;;;;;;;;;;;;17.48;50.09;99200.22;10331860;28;910;-78
2023/11/07 21:23:03;;;;;;;;;;;;;;;17.48;50.07;99192.31;10330382;28;1897;-78
2023/11/07 21:27:59;;;;;;;;;;;;;;;17.49;50.03;99201.06;10331333;28;826;-78
2023/11/07 21:32:56;;;;;;;;;;;;;;;17.46;50.15;99201.22;10331648;28;1125;-78
2023/11/07 21:37:52;;;;;;;;;;;;;;;17.44;50.14;99206.56;10330328;28;953;-78
2023/11/07 21:42:49;;;;;;;;;;;;;;;17.45;50.00;99191.63;10330127;28;1879;-78
2023/11/07 21:47:46;;;;;;;;;;;;;;;17.46;49.98;99194.16;10329581;28;1016;-79
2023/11/07 21:52:41;;;;;;;;;;;;;;;17.46;49.76;99193.31;10329946;28;909;-79
2023/11/07 21:57:37;;;;;;;;;;;;;;;17.46;49.80;99188.91;10330740;28;892;-79
2023/11/07 22:02:33;;;;;;;;;;;;;;;17.42;50.09;99183.84;10328958;28;1890;-79
2023/11/07 22:07:30;;;;;;;;;;;;;;;17.40;50.12;99188.38;10329472;28;768;-79
2023/11/07 22:12:27;;;;;;;;;;;;;;;17.37;50.22;99191.13;10329662;28;881;-79
2023/11/07 22:17:22;;;;;;;;;;;;;;;17.33;50.08;99186.97;10329596;28;850;-79
2023/11/07 22:22:18;;;;;;;;;;;;;;;17.30;50.28;99185.34;10328749;28;1893;-79
2023/11/07 22:27:14;;;;;;;;;;;;;;;17.28;49.97;99189.81;10329677;28;896;-78
2023/11/07 22:32:10;;;;;;;;;;;;;;;17.24;49.77;99194.41;10329225;28;1410;-78
2023/11/07 22:37:06;;;;;;;;;;;;;;;17.20;50.30;99192.00;10328367;28;937;-78
2023/11/07 22:42:02;;;;;;;;;;;;;;;17.16;50.03;99191.31;10327299;28;1910;-79
2023/11/07 22:46:58;;;;;;;;;;;;;;;17.13;50.12;99193.22;10327750;28;875;-78
2023/11/07 22:51:54;;;;;;;;;;;;;;;17.08;50.35;99194.31;10327609;28;780;-78
2023/11/07 22:56:50;;;;;;;;;;;;;;;17.08;50.48;99196.06;10327967;28;838;-78
2023/11/07 23:01:46;;;;;;;;;;;;;;;17.05;50.37;99204.13;10327181;28;1894;-78
2023/11/07 23:06:43;;;;;;;;;;;;;;;17.03;50.19;99198.09;10326970;28;1029;-78
2023/11/07 23:11:41;;;;;;;;;;;;;;;16.98;50.37;99197.47;10326776;28;902;-79
2023/11/07 23:16:37;;;;;;;;;;;;;;;16.96;50.51;99205.44;10326543;28;786;-78
2023/11/07 23:21:33;;;;;;;;;;;;;;;16.95;50.65;99213.38;10326963;28;1898;-79
2023/11/07 23:26:29;;;;;;;;;;;;;;;16.88;50.85;99218.13;10326921;28;799;-78
2023/11/07 23:31:26;;;;;;;;;;;;;;;16.85;51.09;99213.84;10326336;28;1383;-78
2023/11/07 23:36:22;;;;;;;;;;;;;;;16.83;50.97;99209.59;10326583;28;1068;-78
2023/11/07 23:41:18;;;;;;;;;;;;;;;16.81;51.24;99207.00;10325965;28;997;-79
2023/11/07 23:46:14;;;;;;;;;;;;;;;16.78;51.22;99212.44;10326357;28;1965;-79
2023/11/07 23:51:10;;;;;;;;;;;;;;;16.77;51.33;99209.84;10325452;28;810;-79
2023/11/07 23:56:07;;;;;;;;;;;;;;;16.73;51.25;99210.91;10325534;28;893;-78
